sensor_id;sensor_type;location;lat;lon;timestamp;temperature;humidity
14119;DHT22;7138;49.246;9.100;2022-09-03T00:01:04;16.20;99.90
14119;DHT22;7138;49.246;9.100;2022-09-03T00:03:38;16.20;99.90
14119;DHT22;7138;49.246;9.100;2022-09-03T00:06:12;16.20;99.90
14119;DHT22;7138;49.246;9.100;2022-09-03T00:08:47;16.20;99.90
14119;DHT22;7138;49.246;9.100;2022-09-03T00:11:19;16.20;99.90
14119;DHT22;7138;49.246;9.100;2022-09-03T00:13:53;16.20;99.90
14119;DHT22;7138;49.246;9.100;2022-09-03T00:16:28;16.20;99.90
14119;DHT22;7138;49.246;9.100;2022-09-03T00:19:01;16.30;99.90
14119;DHT22;7138;49.246;9.100;2022-09-03T00:21:35;16.30;99.90
14119;DHT22;7138;49.246;9.100;2022-09-03T00:24:06;16.30;99.90
14119;DHT22;7138;49.246;9.100;2022-09-03T00:26:39;16.30;99.90
14119;DHT22;7138;49.246;9.100;2022-09-03T00:29:12;16.40;99.90
14119;DHT22;7138;49.246;9.100;2022-09-03T00:31:44;16.40;99.90
14119;DHT22;7138;49.246;9.100;2022-09-03T00:34:18;16.40;99.90
14119;DHT22;7138;49.246;9.100;2022-09-03T00:36:47;16.40;99.90
14119;DHT22;7138;49.246;9.100;2022-09-03T00:39:15;16.40;99.90
14119;DHT22;7138;49.246;9.100;2022-09-03T00:41:54;16.40;99.90
14119;DHT22;7138;49.246;9.100;2022-09-03T00:44:47;16.40;99.90
14119;DHT22;7138;49.246;9.100;2022-09-03T00:47:28;16.50;99.90
14119;DHT22;7138;49.246;9.100;2022-09-03T00:50:09;16.50;99.90
14119;DHT22;7138;49.246;9.100;2022-09-03T00:52:55;16.50;99.90
14119;DHT22;7138;49.246;9.100;2022-09-03T00:55:34;16.50;99.90
14119;DHT22;7138;49.246;9.100;2022-09-03T00:58:22;16.60;99.90
14119;DHT22;7138;49.246;9.100;2022-09-03T01:01:06;16.60;99.90
14119;DHT22;7138;49.246;9.100;2022-09-03T01:03:42;16.50;99.90
14119;DHT22;7138;49.246;9.100;2022-09-03T01:06:29;16.50;99.90
14119;DHT22;7138;49.246;9.100;2022-09-03T01:09:16;16.50;99.90
14119;DHT22;7138;49.246;9.100;2022-09-03T01:12:00;16.50;99.90
14119;DHT22;7138;49.246;9.100;2022-09-03T01:14:48;16.50;99.90
14119;DHT22;7138;49.246;9.100;2022-09-03T01:17:30;16.50;99.90
14119;DHT22;7138;49.246;9.100;2022-09-03T01:20:16;16.50;99.90
14119;DHT22;7138;49.246;9.100;2022-09-03T01:23:26;16.40;99.90
14119;DHT22;7138;49.246;9.100;2022-09-03T01:26:21;16.40;99.90
14119;DHT22;7138;49.246;9.100;2022-09-03T01:29:16;16.40;99.90
14119;DHT22;7138;49.246;9.100;2022-09-03T01:31:59;16.30;99.90
14119;DHT22;7138;49.246;9.100;2022-09-03T01:34:41;16.30;99.90
14119;DHT22;7138;49.246;9.100;2022-09-03T01:37:21;16.20;99.90
14119;DHT22;7138;49.246;9.100;2022-09-03T01:40:01;16.20;99.90
14119;DHT22;7138;49.246;9.100;2022-09-03T01:42:42;16.30;99.90
14119;DHT22;7138;49.246;9.100;2022-09-03T01:45:36;16.30;99.90
14119;DHT22;7138;49.246;9.100;2022-09-03T01:48:29;16.30;99.90
14119;DHT22;7138;49.246;9.100;2022-09-03T01:51:07;16.30;99.90
14119;DHT22;7138;49.246;9.100;2022-09-03T01:54:12;16.30;99.90
14119;DHT22;7138;49.246;9.100;2022-09-03T01:57:07;16.30;99.90
14119;DHT22;7138;49.246;9.100;2022-09-03T01:59:47;16.30;99.90
14119;DHT22;7138;49.246;9.100;2022-09-03T02:02:22;16.20;99.90
14119;DHT22;7138;49.246;9.100;2022-09-03T02:04:59;16.20;99.90
14119;DHT22;7138;49.246;9.100;2022-09-03T02:07:30;16.20;99.90
14119;DHT22;7138;49.246;9.100;2022-09-03T02:09:58;16.20;99.90
14119;DHT22;7138;49.246;9.100;2022-09-03T02:12:26;16.20;99.90
14119;DHT22;7138;49.246;9.100;2022-09-03T02:14:57;16.20;99.90
14119;DHT22;7138;49.246;9.100;2022-09-03T02:17:25;16.20;99.90
14119;DHT22;7138;49.246;9.100;2022-09-03T02:19:51;16.20;99.90
14119;DHT22;7138;49.246;9.100;2022-09-03T02:22:17;16.20;99.90
14119;DHT22;7138;49.246;9.100;2022-09-03T02:24:43;16.20;99.90
14119;DHT22;7138;49.246;9.100;2022-09-03T02:27:08;16.10;99.90
14119;DHT22;7138;49.246;9.100;2022-09-03T02:29:34;16.20;99.90
14119;DHT22;7138;49.246;9.100;2022-09-03T02:32:00;16.20;99.90
14119;DHT22;7138;49.246;9.100;2022-09-03T02:34:28;16.20;99.90
14119;DHT22;7138;49.246;9.100;2022-09-03T02:36:54;16.10;99.90
14119;DHT22;7138;49.246;9.100;2022-09-03T02:39:20;16.20;99.90
14119;DHT22;7138;49.246;9.100;2022-09-03T02:41:54;16.20;99.90
14119;DHT22;7138;49.246;9.100;2022-09-03T02:44:26;16.10;99.90
14119;DHT22;7138;49.246;9.100;2022-09-03T02:46:58;16.10;99.90
14119;DHT22;7138;49.246;9.100;2022-09-03T02:49:25;16.10;99.90
14119;DHT22;7138;49.246;9.100;2022-09-03T02:51:57;16.10;99.90
14119;DHT22;7138;49.246;9.100;2022-09-03T02:54:30;16.10;99.90
14119;DHT22;7138;49.246;9.100;2022-09-03T02:56:58;16.10;99.90
14119;DHT22;7138;49.246;9.100;2022-09-03T02:59:24;16.10;99.90
14119;DHT22;7138;49.246;9.100;2022-09-03T03:01:52;16.10;99.90
14119;DHT22;7138;49.246;9.100;2022-09-03T03:04:18;16.10;99.90
14119;DHT22;7138;49.246;9.100;2022-09-03T03:06:44;16.10;99.90
14119;DHT22;7138;49.246;9.100;2022-09-03T03:09:12;16.10;99.90
14119;DHT22;7138;49.246;9.100;2022-09-03T03:11:37;16.10;99.90
14119;DHT22;7138;49.246;9.100;2022-09-03T03:14:04;16.10;99.90
14119;DHT22;7138;49.246;9.100;2022-09-03T03:16:30;16.00;99.90
14119;DHT22;7138;49.246;9.100;2022-09-03T03:18:57;16.00;99.90
14119;DHT22;7138;49.246;9.100;2022-09-03T03:21:23;16.10;99.90
14119;DHT22;7138;49.246;9.100;2022-09-03T03:23:49;16.00;99.90
14119;DHT22;7138;49.246;9.100;2022-09-03T03:26:18;16.00;99.90
14119;DHT22;7138;49.246;9.100;2022-09-03T03:28:46;15.90;99.90
14119;DHT22;7138;49.246;9.100;2022-09-03T03:31:16;16.00;99.90
14119;DHT22;7138;49.246;9.100;2022-09-03T03:33:48;16.00;99.90
14119;DHT22;7138;49.246;9.100;2022-09-03T03:36:16;16.00;99.90
14119;DHT22;7138;49.246;9.100;2022-09-03T03:38:43;16.00;99.90
14119;DHT22;7138;49.246;9.100;2022-09-03T03:41:11;15.90;99.90
14119;DHT22;7138;49.246;9.100;2022-09-03T03:43:44;15.90;99.90
14119;DHT22;7138;49.246;9.100;2022-09-03T03:46:10;15.90;99.90
14119;DHT22;7138;49.246;9.100;2022-09-03T03:48:36;15.90;99.90
14119;DHT22;7138;49.246;9.100;2022-09-03T03:51:05;15.90;99.90
14119;DHT22;7138;49.246;9.100;2022-09-03T03:53:33;15.80;99.90
14119;DHT22;7138;49.246;9.100;2022-09-03T03:56:01;15.80;99.90
14119;DHT22;7138;49.246;9.100;2022-09-03T03:58:30;15.80;99.90
14119;DHT22;7138;49.246;9.100;2022-09-03T04:01:05;15.80;99.90
14119;DHT22;7138;49.246;9.100;2022-09-03T04:03:31;15.80;99.90
14119;DHT22;7138;49.246;9.100;2022-09-03T04:05:58;15.80;99.90
14119;DHT22;7138;49.246;9.100;2022-09-03T04:08:25;15.80;99.90
14119;DHT22;7138;49.246;9.100;2022-09-03T04:10:51;15.90;99.90
14119;DHT22;7138;49.246;9.100;2022-09-03T04:13:16;15.80;99.90
14119;DHT22;7138;49.246;9.100;2022-09-03T04:15:43;15.80;99.90
14119;DHT22;7138;49.246;9.100;2022-09-03T04:18:10;15.80;99.90
14119;DHT22;7138;49.246;9.100;2022-09-03T04:20:36;15.90;99.90
14119;DHT22;7138;49.246;9.100;2022-09-03T04:23:03;15.80;99.90
14119;DHT22;7138;49.246;9.100;2022-09-03T04:25:29;15.80;99.90
14119;DHT22;7138;49.246;9.100;2022-09-03T04:27:55;15.80;99.90
14119;DHT22;7138;49.246;9.100;2022-09-03T04:30:21;15.80;99.90
14119;DHT22;7138;49.246;9.100;2022-09-03T04:32:49;15.90;99.90
14119;DHT22;7138;49.246;9.100;2022-09-03T04:35:20;15.80;99.90
14119;DHT22;7138;49.246;9.100;2022-09-03T04:37:47;15.80;99.90
14119;DHT22;7138;49.246;9.100;2022-09-03T04:40:14;15.80;99.90
14119;DHT22;7138;49.246;9.100;2022-09-03T04:42:40;15.80;99.90
14119;DHT22;7138;49.246;9.100;2022-09-03T04:45:07;15.80;99.90
14119;DHT22;7138;49.246;9.100;2022-09-03T04:47:33;15.80;99.90
14119;DHT22;7138;49.246;9.100;2022-09-03T04:50:01;15.80;99.90
14119;DHT22;7138;49.246;9.100;2022-09-03T04:52:29;15.80;99.90
14119;DHT22;7138;49.246;9.100;2022-09-03T04:54:56;15.80;99.90
14119;DHT22;7138;49.246;9.100;2022-09-03T04:57:21;15.80;99.90
14119;DHT22;7138;49.246;9.100;2022-09-03T04:59:47;15.80;99.90
14119;DHT22;7138;49.246;9.100;2022-09-03T05:02:13;15.80;99.90
14119;DHT22;7138;49.246;9.100;2022-09-03T05:04:39;15.90;99.90
14119;DHT22;7138;49.246;9.100;2022-09-03T05:07:05;15.90;99.90
14119;DHT22;7138;49.246;9.100;2022-09-03T05:09:33;15.90;99.90
14119;DHT22;7138;49.246;9.100;2022-09-03T05:11:59;16.00;99.90
14119;DHT22;7138;49.246;9.100;2022-09-03T05:14:25;15.90;99.90
14119;DHT22;7138;49.246;9.100;2022-09-03T05:16:51;15.90;99.90
14119;DHT22;7138;49.246;9.100;2022-09-03T05:19:17;15.90;99.90
14119;DHT22;7138;49.246;9.100;2022-09-03T05:21:43;15.90;99.90
14119;DHT22;7138;49.246;9.100;2022-09-03T05:24:09;15.90;99.90
14119;DHT22;7138;49.246;9.100;2022-09-03T05:26:38;15.90;99.90
14119;DHT22;7138;49.246;9.100;2022-09-03T05:29:05;15.90;99.90
14119;DHT22;7138;49.246;9.100;2022-09-03T05:31:32;15.90;99.90
14119;DHT22;7138;49.246;9.100;2022-09-03T05:34:01;15.90;99.90
14119;DHT22;7138;49.246;9.100;2022-09-03T05:36:30;15.90;99.90
14119;DHT22;7138;49.246;9.100;2022-09-03T05:38:59;15.90;99.90
14119;DHT22;7138;49.246;9.100;2022-09-03T05:41:26;16.00;99.90
14119;DHT22;7138;49.246;9.100;2022-09-03T05:43:55;16.00;99.90
14119;DHT22;7138;49.246;9.100;2022-09-03T05:46:24;16.10;99.90
14119;DHT22;7138;49.246;9.100;2022-09-03T05:48:56;16.10;99.90
14119;DHT22;7138;49.246;9.100;2022-09-03T05:51:23;16.10;99.90
14119;DHT22;7138;49.246;9.100;2022-09-03T05:53:48;16.20;99.90
14119;DHT22;7138;49.246;9.100;2022-09-03T05:56:16;16.20;99.90
14119;DHT22;7138;49.246;9.100;2022-09-03T05:58:44;16.60;99.90
14119;DHT22;7138;49.246;9.100;2022-09-03T06:01:18;16.90;99.90
14119;DHT22;7138;49.246;9.100;2022-09-03T06:03:46;17.10;99.90
14119;DHT22;7138;49.246;9.100;2022-09-03T06:06:17;17.00;99.90
14119;DHT22;7138;49.246;9.100;2022-09-03T06:08:43;17.10;99.90
14119;DHT22;7138;49.246;9.100;2022-09-03T06:11:10;17.10;99.90
14119;DHT22;7138;49.246;9.100;2022-09-03T06:13:37;17.00;99.90
14119;DHT22;7138;49.246;9.100;2022-09-03T06:16:04;17.00;99.90
14119;DHT22;7138;49.246;9.100;2022-09-03T06:18:33;17.00;99.90
14119;DHT22;7138;49.246;9.100;2022-09-03T06:21:00;17.00;99.90
14119;DHT22;7138;49.246;9.100;2022-09-03T06:23:27;17.10;99.90
14119;DHT22;7138;49.246;9.100;2022-09-03T06:26:02;17.10;99.90
14119;DHT22;7138;49.246;9.100;2022-09-03T06:28:29;17.20;99.90
14119;DHT22;7138;49.246;9.100;2022-09-03T06:30:57;17.30;99.90
14119;DHT22;7138;49.246;9.100;2022-09-03T06:33:23;17.30;99.90
14119;DHT22;7138;49.246;9.100;2022-09-03T06:35:53;17.50;99.90
14119;DHT22;7138;49.246;9.100;2022-09-03T06:38:22;17.50;99.90
14119;DHT22;7138;49.246;9.100;2022-09-03T06:40:52;17.60;99.90
14119;DHT22;7138;49.246;9.100;2022-09-03T06:43:18;17.50;99.90
14119;DHT22;7138;49.246;9.100;2022-09-03T06:45:52;17.40;99.90
14119;DHT22;7138;49.246;9.100;2022-09-03T06:48:19;17.40;99.90
14119;DHT22;7138;49.246;9.100;2022-09-03T06:50:54;17.30;99.90
14119;DHT22;7138;49.246;9.100;2022-09-03T06:53:22;17.20;99.90
14119;DHT22;7138;49.246;9.100;2022-09-03T06:55:52;17.20;99.90
14119;DHT22;7138;49.246;9.100;2022-09-03T06:58:19;17.20;99.90
14119;DHT22;7138;49.246;9.100;2022-09-03T07:00:46;17.30;99.90
14119;DHT22;7138;49.246;9.100;2022-09-03T07:03:13;17.30;99.90
14119;DHT22;7138;49.246;9.100;2022-09-03T07:05:42;17.40;99.90
14119;DHT22;7138;49.246;9.100;2022-09-03T07:08:09;17.60;99.90
14119;DHT22;7138;49.246;9.100;2022-09-03T07:10:35;17.60;99.90
14119;DHT22;7138;49.246;9.100;2022-09-03T07:13:02;17.60;99.90
14119;DHT22;7138;49.246;9.100;2022-09-03T07:15:28;17.70;99.90
14119;DHT22;7138;49.246;9.100;2022-09-03T07:17:53;17.80;99.90
14119;DHT22;7138;49.246;9.100;2022-09-03T07:20:20;18.30;99.90
14119;DHT22;7138;49.246;9.100;2022-09-03T07:22:47;19.10;99.90
14119;DHT22;7138;49.246;9.100;2022-09-03T07:25:15;19.20;99.90
14119;DHT22;7138;49.246;9.100;2022-09-03T07:27:40;18.90;99.90
14119;DHT22;7138;49.246;9.100;2022-09-03T07:30:08;18.90;99.90
14119;DHT22;7138;49.246;9.100;2022-09-03T07:32:35;18.90;99.90
14119;DHT22;7138;49.246;9.100;2022-09-03T07:35:05;18.70;99.90
14119;DHT22;7138;49.246;9.100;2022-09-03T07:37:32;18.40;99.90
14119;DHT22;7138;49.246;9.100;2022-09-03T07:39:58;18.30;99.90
14119;DHT22;7138;49.246;9.100;2022-09-03T07:42:25;18.20;99.90
14119;DHT22;7138;49.246;9.100;2022-09-03T07:44:55;18.20;99.90
14119;DHT22;7138;49.246;9.100;2022-09-03T07:47:22;18.10;99.90
14119;DHT22;7138;49.246;9.100;2022-09-03T07:49:50;18.00;99.90
14119;DHT22;7138;49.246;9.100;2022-09-03T07:52:16;17.70;99.90
14119;DHT22;7138;49.246;9.100;2022-09-03T07:54:43;17.50;99.90
14119;DHT22;7138;49.246;9.100;2022-09-03T07:57:09;17.40;99.90
14119;DHT22;7138;49.246;9.100;2022-09-03T07:59:36;17.40;99.90
14119;DHT22;7138;49.246;9.100;2022-09-03T08:02:02;17.40;99.90
14119;DHT22;7138;49.246;9.100;2022-09-03T08:04:30;17.40;99.90
14119;DHT22;7138;49.246;9.100;2022-09-03T08:06:58;17.30;99.90
14119;DHT22;7138;49.246;9.100;2022-09-03T08:09:24;17.30;99.90
14119;DHT22;7138;49.246;9.100;2022-09-03T08:11:50;17.40;99.90
14119;DHT22;7138;49.246;9.100;2022-09-03T08:14:16;17.50;99.90
14119;DHT22;7138;49.246;9.100;2022-09-03T08:16:44;17.60;99.90
14119;DHT22;7138;49.246;9.100;2022-09-03T08:19:12;17.60;99.90
14119;DHT22;7138;49.246;9.100;2022-09-03T08:21:39;17.60;99.90
14119;DHT22;7138;49.246;9.100;2022-09-03T08:24:09;17.70;99.90
14119;DHT22;7138;49.246;9.100;2022-09-03T08:26:37;17.70;99.90
14119;DHT22;7138;49.246;9.100;2022-09-03T08:29:05;17.70;99.90
14119;DHT22;7138;49.246;9.100;2022-09-03T08:31:32;17.70;99.90
14119;DHT22;7138;49.246;9.100;2022-09-03T08:34:04;17.80;99.90
14119;DHT22;7138;49.246;9.100;2022-09-03T08:36:35;17.80;99.90
14119;DHT22;7138;49.246;9.100;2022-09-03T08:39:04;18.00;99.90
14119;DHT22;7138;49.246;9.100;2022-09-03T08:41:41;18.10;99.90
14119;DHT22;7138;49.246;9.100;2022-09-03T08:44:23;18.30;99.90
14119;DHT22;7138;49.246;9.100;2022-09-03T08:46:56;18.50;99.90
14119;DHT22;7138;49.246;9.100;2022-09-03T08:49:31;18.60;99.90
14119;DHT22;7138;49.246;9.100;2022-09-03T08:52:07;18.50;99.90
14119;DHT22;7138;49.246;9.100;2022-09-03T08:54:44;18.50;99.90
14119;DHT22;7138;49.246;9.100;2022-09-03T08:57:15;18.50;99.90
14119;DHT22;7138;49.246;9.100;2022-09-03T08:59:45;18.70;99.90
14119;DHT22;7138;49.246;9.100;2022-09-03T09:02:20;19.00;99.90
14119;DHT22;7138;49.246;9.100;2022-09-03T09:05:04;19.40;99.90
14119;DHT22;7138;49.246;9.100;2022-09-03T09:07:39;19.40;99.90
14119;DHT22;7138;49.246;9.100;2022-09-03T09:10:14;19.40;99.90
14119;DHT22;7138;49.246;9.100;2022-09-03T09:12:57;19.30;99.90
14119;DHT22;7138;49.246;9.100;2022-09-03T09:15:39;19.30;99.90
14119;DHT22;7138;49.246;9.100;2022-09-03T09:18:18;19.30;99.90
14119;DHT22;7138;49.246;9.100;2022-09-03T09:20:52;19.30;99.90
14119;DHT22;7138;49.246;9.100;2022-09-03T09:23:27;19.20;99.90
14119;DHT22;7138;49.246;9.100;2022-09-03T09:25:59;19.10;99.90
14119;DHT22;7138;49.246;9.100;2022-09-03T09:28:32;19.10;99.90
14119;DHT22;7138;49.246;9.100;2022-09-03T09:31:02;18.90;99.90
14119;DHT22;7138;49.246;9.100;2022-09-03T09:33:30;18.80;99.90
14119;DHT22;7138;49.246;9.100;2022-09-03T09:36:01;18.70;99.90
14119;DHT22;7138;49.246;9.100;2022-09-03T09:38:33;18.50;99.90
14119;DHT22;7138;49.246;9.100;2022-09-03T09:41:08;18.50;99.90
14119;DHT22;7138;49.246;9.100;2022-09-03T09:43:37;18.70;99.90
14119;DHT22;7138;49.246;9.100;2022-09-03T09:46:07;19.30;99.90
14119;DHT22;7138;49.246;9.100;2022-09-03T09:48:38;20.10;99.90
14119;DHT22;7138;49.246;9.100;2022-09-03T09:51:19;20.30;99.90
14119;DHT22;7138;49.246;9.100;2022-09-03T09:53:47;20.10;99.90
14119;DHT22;7138;49.246;9.100;2022-09-03T09:56:21;20.30;99.90
14119;DHT22;7138;49.246;9.100;2022-09-03T09:58:48;20.50;99.90
14119;DHT22;7138;49.246;9.100;2022-09-03T10:01:21;20.60;99.90
14119;DHT22;7138;49.246;9.100;2022-09-03T10:03:50;21.00;99.90
14119;DHT22;7138;49.246;9.100;2022-09-03T10:06:22;20.90;99.90
14119;DHT22;7138;49.246;9.100;2022-09-03T10:09:16;21.10;99.90
14119;DHT22;7138;49.246;9.100;2022-09-03T10:11:44;21.90;99.90
14119;DHT22;7138;49.246;9.100;2022-09-03T10:14:19;22.40;99.90
14119;DHT22;7138;49.246;9.100;2022-09-03T10:16:57;22.40;99.90
14119;DHT22;7138;49.246;9.100;2022-09-03T10:19:38;22.40;99.90
14119;DHT22;7138;49.246;9.100;2022-09-03T10:22:15;22.50;99.90
14119;DHT22;7138;49.246;9.100;2022-09-03T10:24:49;22.80;99.90
14119;DHT22;7138;49.246;9.100;2022-09-03T10:27:21;22.50;99.90
14119;DHT22;7138;49.246;9.100;2022-09-03T10:29:48;22.50;99.90
14119;DHT22;7138;49.246;9.100;2022-09-03T10:32:30;22.80;99.90
14119;DHT22;7138;49.246;9.100;2022-09-03T10:35:12;22.90;99.90
14119;DHT22;7138;49.246;9.100;2022-09-03T10:37:53;23.20;99.90
14119;DHT22;7138;49.246;9.100;2022-09-03T10:40:33;22.90;99.90
14119;DHT22;7138;49.246;9.100;2022-09-03T10:43:15;23.20;99.90
14119;DHT22;7138;49.246;9.100;2022-09-03T10:46:02;23.70;99.90
14119;DHT22;7138;49.246;9.100;2022-09-03T10:48:42;23.60;99.90
14119;DHT22;7138;49.246;9.100;2022-09-03T10:51:20;24.30;99.90
14119;DHT22;7138;49.246;9.100;2022-09-03T10:54:14;24.00;99.90
14119;DHT22;7138;49.246;9.100;2022-09-03T10:57:05;24.30;99.90
14119;DHT22;7138;49.246;9.100;2022-09-03T10:59:41;24.70;99.90
14119;DHT22;7138;49.246;9.100;2022-09-03T11:02:33;24.10;99.90
14119;DHT22;7138;49.246;9.100;2022-09-03T11:05:20;24.30;99.90
14119;DHT22;7138;49.246;9.100;2022-09-03T11:07:50;24.40;99.90
14119;DHT22;7138;49.246;9.100;2022-09-03T11:10:27;24.40;99.90
14119;DHT22;7138;49.246;9.100;2022-09-03T11:13:01;24.00;99.90
14119;DHT22;7138;49.246;9.100;2022-09-03T11:15:33;23.80;99.90
14119;DHT22;7138;49.246;9.100;2022-09-03T11:18:15;23.30;99.90
14119;DHT22;7138;49.246;9.100;2022-09-03T11:20:48;24.00;99.90
14119;DHT22;7138;49.246;9.100;2022-09-03T11:23:20;24.30;99.90
14119;DHT22;7138;49.246;9.100;2022-09-03T11:25:53;24.00;99.90
14119;DHT22;7138;49.246;9.100;2022-09-03T11:28:28;24.00;99.90
14119;DHT22;7138;49.246;9.100;2022-09-03T11:31:14;24.40;99.90
14119;DHT22;7138;49.246;9.100;2022-09-03T11:33:49;24.90;99.90
14119;DHT22;7138;49.246;9.100;2022-09-03T11:36:29;24.60;99.90
14119;DHT22;7138;49.246;9.100;2022-09-03T11:38:57;24.30;99.90
14119;DHT22;7138;49.246;9.100;2022-09-03T11:41:27;23.90;99.90
14119;DHT22;7138;49.246;9.100;2022-09-03T11:44:10;23.60;99.90
14119;DHT22;7138;49.246;9.100;2022-09-03T11:46:52;24.20;99.90
14119;DHT22;7138;49.246;9.100;2022-09-03T11:49:27;24.60;99.90
14119;DHT22;7138;49.246;9.100;2022-09-03T11:51:58;23.90;99.90
14119;DHT22;7138;49.246;9.100;2022-09-03T11:54:25;23.40;99.90
14119;DHT22;7138;49.246;9.100;2022-09-03T11:57:06;22.70;99.90
14119;DHT22;7138;49.246;9.100;2022-09-03T11:59:38;22.50;99.90
14119;DHT22;7138;49.246;9.100;2022-09-03T12:02:20;22.60;99.90
14119;DHT22;7138;49.246;9.100;2022-09-03T12:05:02;22.90;99.90
14119;DHT22;7138;49.246;9.100;2022-09-03T12:07:50;23.20;99.90
14119;DHT22;7138;49.246;9.100;2022-09-03T12:10:35;23.50;99.90
14119;DHT22;7138;49.246;9.100;2022-09-03T12:13:26;23.80;99.90
14119;DHT22;7138;49.246;9.100;2022-09-03T12:16:17;23.70;99.90
14119;DHT22;7138;49.246;9.100;2022-09-03T12:18:58;23.60;99.90
14119;DHT22;7138;49.246;9.100;2022-09-03T12:21:28;23.70;99.90
14119;DHT22;7138;49.246;9.100;2022-09-03T12:23:55;23.70;99.90
14119;DHT22;7138;49.246;9.100;2022-09-03T12:26:22;23.30;99.90
14119;DHT22;7138;49.246;9.100;2022-09-03T12:28:54;23.20;99.90
14119;DHT22;7138;49.246;9.100;2022-09-03T12:31:23;23.30;99.90
14119;DHT22;7138;49.246;9.100;2022-09-03T12:33:54;23.20;99.90
14119;DHT22;7138;49.246;9.100;2022-09-03T12:36:24;22.90;99.90
14119;DHT22;7138;49.246;9.100;2022-09-03T12:38:51;22.90;99.90
14119;DHT22;7138;49.246;9.100;2022-09-03T12:41:23;22.70;99.90
14119;DHT22;7138;49.246;9.100;2022-09-03T12:43:54;22.90;99.90
14119;DHT22;7138;49.246;9.100;2022-09-03T12:46:23;23.10;99.90
14119;DHT22;7138;49.246;9.100;2022-09-03T12:48:57;23.10;99.90
14119;DHT22;7138;49.246;9.100;2022-09-03T12:51:33;23.20;99.90
14119;DHT22;7138;49.246;9.100;2022-09-03T12:54:04;23.30;99.90
14119;DHT22;7138;49.246;9.100;2022-09-03T12:56:34;23.50;99.90
14119;DHT22;7138;49.246;9.100;2022-09-03T12:59:07;23.60;99.90
14119;DHT22;7138;49.246;9.100;2022-09-03T13:01:45;23.60;99.90
14119;DHT22;7138;49.246;9.100;2022-09-03T13:04:17;23.50;99.90
14119;DHT22;7138;49.246;9.100;2022-09-03T13:06:50;23.40;99.90
14119;DHT22;7138;49.246;9.100;2022-09-03T13:09:23;23.70;99.90
14119;DHT22;7138;49.246;9.100;2022-09-03T13:11:51;23.90;99.90
14119;DHT22;7138;49.246;9.100;2022-09-03T13:14:21;24.00;99.90
14119;DHT22;7138;49.246;9.100;2022-09-03T13:17:17;24.30;99.90
14119;DHT22;7138;49.246;9.100;2022-09-03T13:20:06;24.30;99.90
14119;DHT22;7138;49.246;9.100;2022-09-03T13:22:54;24.10;99.90
14119;DHT22;7138;49.246;9.100;2022-09-03T13:25:33;24.40;99.90
14119;DHT22;7138;49.246;9.100;2022-09-03T13:28:15;24.60;99.90
14119;DHT22;7138;49.246;9.100;2022-09-03T13:30:57;24.80;99.90
14119;DHT22;7138;49.246;9.100;2022-09-03T13:33:31;25.40;99.90
14119;DHT22;7138;49.246;9.100;2022-09-03T13:36:08;25.90;99.90
14119;DHT22;7138;49.246;9.100;2022-09-03T13:38:41;25.90;99.90
14119;DHT22;7138;49.246;9.100;2022-09-03T13:41:13;25.50;99.90
14119;DHT22;7138;49.246;9.100;2022-09-03T13:43:50;25.30;99.90
14119;DHT22;7138;49.246;9.100;2022-09-03T13:46:28;24.60;99.90
14119;DHT22;7138;49.246;9.100;2022-09-03T13:49:05;24.30;99.90
14119;DHT22;7138;49.246;9.100;2022-09-03T13:51:58;24.10;99.90
14119;DHT22;7138;49.246;9.100;2022-09-03T13:54:30;23.60;99.90
14119;DHT22;7138;49.246;9.100;2022-09-03T13:57:03;23.30;99.90
14119;DHT22;7138;49.246;9.100;2022-09-03T13:59:35;23.10;99.90
14119;DHT22;7138;49.246;9.100;2022-09-03T14:02:21;23.20;99.90
14119;DHT22;7138;49.246;9.100;2022-09-03T14:05:00;23.20;99.90
14119;DHT22;7138;49.246;9.100;2022-09-03T14:07:45;23.20;99.90
14119;DHT22;7138;49.246;9.100;2022-09-03T14:10:24;23.20;99.90
14119;DHT22;7138;49.246;9.100;2022-09-03T14:13:05;23.30;99.90
14119;DHT22;7138;49.246;9.100;2022-09-03T14:15:47;23.20;99.90
14119;DHT22;7138;49.246;9.100;2022-09-03T14:18:32;23.20;99.90
14119;DHT22;7138;49.246;9.100;2022-09-03T14:21:08;23.10;99.90
14119;DHT22;7138;49.246;9.100;2022-09-03T14:23:45;23.30;99.90
14119;DHT22;7138;49.246;9.100;2022-09-03T14:26:17;23.40;99.90
14119;DHT22;7138;49.246;9.100;2022-09-03T14:28:48;23.30;99.90
14119;DHT22;7138;49.246;9.100;2022-09-03T14:31:31;23.30;99.90
14119;DHT22;7138;49.246;9.100;2022-09-03T14:34:25;23.30;99.90
14119;DHT22;7138;49.246;9.100;2022-09-03T14:37:03;23.10;99.90
14119;DHT22;7138;49.246;9.100;2022-09-03T14:39:39;22.80;99.90
14119;DHT22;7138;49.246;9.100;2022-09-03T14:42:36;22.10;99.90
14119;DHT22;7138;49.246;9.100;2022-09-03T14:48:36;20.60;99.90
14119;DHT22;7138;49.246;9.100;2022-09-03T14:51:42;19.40;99.90
14119;DHT22;7138;49.246;9.100;2022-09-03T14:54:29;18.70;99.90
14119;DHT22;7138;49.246;9.100;2022-09-03T14:57:36;18.40;99.90
14119;DHT22;7138;49.246;9.100;2022-09-03T15:00:15;18.30;99.90
14119;DHT22;7138;49.246;9.100;2022-09-03T15:05:52;18.10;99.90
14119;DHT22;7138;49.246;9.100;2022-09-03T15:08:42;18.10;99.90
14119;DHT22;7138;49.246;9.100;2022-09-03T15:11:19;18.10;99.90
14119;DHT22;7138;49.246;9.100;2022-09-03T15:13:51;17.90;99.90
14119;DHT22;7138;49.246;9.100;2022-09-03T15:16:30;17.60;99.90
14119;DHT22;7138;49.246;9.100;2022-09-03T15:19:12;17.50;99.90
14119;DHT22;7138;49.246;9.100;2022-09-03T15:21:58;17.40;99.90
14119;DHT22;7138;49.246;9.100;2022-09-03T15:24:49;17.40;99.90
14119;DHT22;7138;49.246;9.100;2022-09-03T15:27:22;17.40;99.90
14119;DHT22;7138;49.246;9.100;2022-09-03T15:30:05;17.40;99.90
14119;DHT22;7138;49.246;9.100;2022-09-03T15:32:45;17.50;99.90
14119;DHT22;7138;49.246;9.100;2022-09-03T15:35:33;17.30;99.90
14119;DHT22;7138;49.246;9.100;2022-09-03T15:38:10;17.40;99.90
14119;DHT22;7138;49.246;9.100;2022-09-03T15:40:51;17.50;99.90
14119;DHT22;7138;49.246;9.100;2022-09-03T15:43:24;17.60;99.90
14119;DHT22;7138;49.246;9.100;2022-09-03T15:45:55;17.50;99.90
14119;DHT22;7138;49.246;9.100;2022-09-03T15:48:31;17.30;99.90
14119;DHT22;7138;49.246;9.100;2022-09-03T15:51:09;17.60;99.90
14119;DHT22;7138;49.246;9.100;2022-09-03T15:53:48;17.40;99.90
14119;DHT22;7138;49.246;9.100;2022-09-03T15:56:25;17.60;99.90
14119;DHT22;7138;49.246;9.100;2022-09-03T15:59:00;17.80;99.90
14119;DHT22;7138;49.246;9.100;2022-09-03T16:01:36;17.80;99.90
14119;DHT22;7138;49.246;9.100;2022-09-03T16:04:17;17.90;99.90
14119;DHT22;7138;49.246;9.100;2022-09-03T16:06:57;18.00;99.90
14119;DHT22;7138;49.246;9.100;2022-09-03T16:09:35;18.00;99.90
14119;DHT22;7138;49.246;9.100;2022-09-03T16:12:20;18.10;99.90
14119;DHT22;7138;49.246;9.100;2022-09-03T16:14:59;18.20;99.90
14119;DHT22;7138;49.246;9.100;2022-09-03T16:17:31;18.30;99.90
14119;DHT22;7138;49.246;9.100;2022-09-03T16:20:03;18.20;99.90
14119;DHT22;7138;49.246;9.100;2022-09-03T16:22:36;18.10;99.90
14119;DHT22;7138;49.246;9.100;2022-09-03T16:25:11;18.20;99.90
14119;DHT22;7138;49.246;9.100;2022-09-03T16:27:51;18.10;99.90
14119;DHT22;7138;49.246;9.100;2022-09-03T16:30:30;18.00;99.90
14119;DHT22;7138;49.246;9.100;2022-09-03T16:33:12;18.00;99.90